createdAt,value
2017-12-08T00:01:25.064Z,100.00
2017-12-08T00:03:53.313Z,100.00
2017-12-08T00:06:20.800Z,100.00
2017-12-08T00:08:49.908Z,100.00
2017-12-08T00:11:17.383Z,100.00
2017-12-08T00:13:44.936Z,100.00
2017-12-08T00:16:12.448Z,100.00
2017-12-08T00:18:39.929Z,100.00
2017-12-08T00:21:09.121Z,100.00
2017-12-08T00:23:36.615Z,100.00
2017-12-08T00:26:04.254Z,100.00
2017-12-08T00:28:32.869Z,100.00
2017-12-08T00:31:00.376Z,100.00
2017-12-08T00:33:27.877Z,100.00
2017-12-08T00:35:55.350Z,100.00
2017-12-08T00:38:23.101Z,100.00
2017-12-08T00:40:50.584Z,98.99
2017-12-08T00:43:18.058Z,98.78
2017-12-08T00:45:45.545Z,99.15
2017-12-08T00:48:13.039Z,99.21
2017-12-08T00:50:40.515Z,99.43
2017-12-08T00:53:08.007Z,100.00
2017-12-08T00:55:35.494Z,99.86
2017-12-08T00:58:02.992Z,99.55
2017-12-08T01:00:30.459Z,99.69
2017-12-08T01:02:57.941Z,99.30
2017-12-08T01:05:25.435Z,99.54
2017-12-08T01:07:52.894Z,100.00
2017-12-08T01:10:20.380Z,100.00
2017-12-08T01:12:48.793Z,100.00
2017-12-08T01:15:16.280Z,100.00
2017-12-08T01:17:43.752Z,98.89
2017-12-08T01:20:11.225Z,99.23
2017-12-08T01:22:38.730Z,98.66
2017-12-08T01:25:06.210Z,98.99
2017-12-08T01:27:33.670Z,98.09
2017-12-08T01:30:01.151Z,97.85
2017-12-08T01:32:28.689Z,97.39
2017-12-08T01:34:56.181Z,97.39
2017-12-08T01:37:23.748Z,97.32
2017-12-08T01:39:51.262Z,97.52
2017-12-08T01:42:18.735Z,97.63
2017-12-08T01:44:46.232Z,97.09
2017-12-08T01:47:13.704Z,97.38
2017-12-08T01:49:41.196Z,97.51
2017-12-08T01:52:08.671Z,98.00
2017-12-08T01:54:36.141Z,97.67
2017-12-08T01:57:03.790Z,97.49
2017-12-08T01:59:31.277Z,97.93
2017-12-08T02:01:58.779Z,97.88
2017-12-08T02:04:26.307Z,96.91
2017-12-08T02:06:53.795Z,97.23
2017-12-08T02:09:21.290Z,97.62
2017-12-08T02:11:48.758Z,97.66
2017-12-08T02:14:16.241Z,97.95
2017-12-08T02:16:43.755Z,98.40
2017-12-08T02:19:11.229Z,97.82
2017-12-08T02:21:38.940Z,97.80
2017-12-08T02:24:07.386Z,97.29
2017-12-08T02:26:34.883Z,97.63
2017-12-08T02:29:02.358Z,97.17
2017-12-08T02:31:29.838Z,97.34
2017-12-08T02:33:57.324Z,97.71
2017-12-08T02:36:24.817Z,97.68
2017-12-08T02:38:52.299Z,97.91
2017-12-08T02:41:19.780Z,97.57
2017-12-08T02:43:47.249Z,97.45
2017-12-08T02:46:14.734Z,97.82
2017-12-08T02:48:42.246Z,97.60
2017-12-08T02:51:09.721Z,96.66
2017-12-08T02:53:37.186Z,96.92
2017-12-08T02:56:05.941Z,96.39
2017-12-08T02:58:33.417Z,96.43
2017-12-08T03:01:00.890Z,96.68
2017-12-08T03:03:28.365Z,96.45
2017-12-08T03:05:55.850Z,95.90
2017-12-08T03:08:23.321Z,95.81
2017-12-08T03:10:50.842Z,95.47
2017-12-08T03:13:18.337Z,95.81
2017-12-08T03:15:45.811Z,95.60
2017-12-08T03:18:13.332Z,95.14
2017-12-08T03:20:40.852Z,95.84
2017-12-08T03:23:08.339Z,96.14
2017-12-08T03:25:35.833Z,95.34
2017-12-08T03:28:03.360Z,95.97
2017-12-08T03:30:30.871Z,95.35
2017-12-08T03:32:58.359Z,96.05
2017-12-08T03:35:26.611Z,95.75
2017-12-08T03:37:54.101Z,95.93
2017-12-08T03:40:21.608Z,95.64
2017-12-08T03:42:49.082Z,95.39
2017-12-08T03:45:16.573Z,95.92
2017-12-08T03:47:44.950Z,95.72
2017-12-08T03:50:12.429Z,95.84
2017-12-08T03:52:39.932Z,95.64
2017-12-08T03:55:07.409Z,95.36
2017-12-08T03:57:34.865Z,95.42
2017-12-08T04:00:02.365Z,95.46
2017-12-08T04:02:29.864Z,95.35
2017-12-08T04:04:57.360Z,95.71
2017-12-08T04:07:24.868Z,95.07
2017-12-08T04:09:52.333Z,95.08
2017-12-08T04:12:19.833Z,95.31
2017-12-08T04:14:47.320Z,95.49
2017-12-08T04:17:14.806Z,95.63
2017-12-08T04:19:42.313Z,95.69
2017-12-08T04:22:10.512Z,95.95
2017-12-08T04:24:37.992Z,95.73
2017-12-08T04:27:05.463Z,95.15
2017-12-08T04:29:32.976Z,95.37
2017-12-08T04:32:00.433Z,95.70
2017-12-08T04:34:28.482Z,95.14
2017-12-08T04:36:55.954Z,94.83
2017-12-08T04:39:23.433Z,95.77
2017-12-08T04:41:50.924Z,94.17
2017-12-08T04:44:18.396Z,93.87
2017-12-08T04:46:45.872Z,93.31
2017-12-08T04:49:13.392Z,92.94
2017-12-08T04:51:40.872Z,92.06
2017-12-08T04:54:08.335Z,91.95
2017-12-08T04:56:35.830Z,91.35
2017-12-08T04:59:04.231Z,91.27
2017-12-08T05:01:31.712Z,91.64
2017-12-08T05:03:59.186Z,90.58
2017-12-08T05:06:26.687Z,91.49
2017-12-08T05:08:54.188Z,90.98
2017-12-08T05:11:21.684Z,90.78
2017-12-08T05:13:49.388Z,90.91
2017-12-08T05:16:16.861Z,91.39
2017-12-08T05:18:44.333Z,91.30
2017-12-08T05:21:13.997Z,92.15
2017-12-08T05:23:41.560Z,92.12
2017-12-08T05:26:09.094Z,91.83
2017-12-08T05:28:36.561Z,91.35
2017-12-08T05:31:04.056Z,92.32
2017-12-08T05:33:31.585Z,91.67
2017-12-08T05:35:59.067Z,91.12
2017-12-08T05:38:26.573Z,91.43
2017-12-08T05:40:54.054Z,91.01
2017-12-08T05:43:21.573Z,89.96
2017-12-08T05:45:49.049Z,89.85
2017-12-08T05:48:16.548Z,90.08
2017-12-08T05:50:44.031Z,89.81
2017-12-08T05:53:11.518Z,89.23
2017-12-08T05:55:39.086Z,88.09
2017-12-08T05:58:06.566Z,88.97
2017-12-08T06:00:34.078Z,90.01
2017-12-08T06:03:01.584Z,89.01
2017-12-08T06:05:29.076Z,89.52
2017-12-08T06:07:56.541Z,89.92
2017-12-08T06:10:24.014Z,91.05
2017-12-08T06:12:51.496Z,91.58
2017-12-08T06:15:19.002Z,91.50
2017-12-08T06:17:46.526Z,90.80
2017-12-08T06:20:14.036Z,90.94
2017-12-08T06:22:41.528Z,91.75
2017-12-08T06:25:09.071Z,90.82
2017-12-08T06:27:36.584Z,90.46
2017-12-08T06:30:04.081Z,91.70
2017-12-08T06:32:31.570Z,91.11
2017-12-08T06:34:59.032Z,91.91
2017-12-08T06:37:26.513Z,90.86
2017-12-08T06:39:54.017Z,91.02
2017-12-08T06:42:21.512Z,90.66
2017-12-08T06:44:49.009Z,90.47
2017-12-08T06:47:16.486Z,90.34
2017-12-08T06:49:43.989Z,89.51
2017-12-08T06:52:11.466Z,89.09
2017-12-08T06:54:38.964Z,88.71
2017-12-08T06:57:06.442Z,88.41
2017-12-08T06:59:33.914Z,89.12
2017-12-08T07:02:02.019Z,88.83
2017-12-08T07:04:29.510Z,88.31
2017-12-08T07:06:56.990Z,88.45
2017-12-08T07:09:24.506Z,88.52
2017-12-08T07:11:51.980Z,89.25
2017-12-08T07:14:19.468Z,88.76
2017-12-08T07:16:46.971Z,88.90
2017-12-08T07:19:14.448Z,90.37
2017-12-08T07:21:41.935Z,93.27
2017-12-08T07:24:10.160Z,95.96
2017-12-08T07:26:37.689Z,95.75
2017-12-08T07:29:05.154Z,96.75
2017-12-08T07:31:32.651Z,96.60
2017-12-08T07:34:00.133Z,96.66
2017-12-08T07:36:27.622Z,96.65
2017-12-08T07:38:55.088Z,96.49
2017-12-08T07:41:22.614Z,97.21
2017-12-08T07:43:51.053Z,97.64
2017-12-08T07:46:19.685Z,96.68
2017-12-08T07:48:47.161Z,96.94
2017-12-08T07:51:14.638Z,97.81
2017-12-08T07:53:42.104Z,97.79
2017-12-08T07:56:09.594Z,98.01
2017-12-08T07:58:37.073Z,97.33
2017-12-08T08:01:04.522Z,98.25
2017-12-08T08:03:35.046Z,98.04
2017-12-08T08:06:05.422Z,97.68
2017-12-08T08:08:34.307Z,97.86
2017-12-08T08:11:01.809Z,97.63
2017-12-08T08:13:29.386Z,97.75
2017-12-08T08:15:57.652Z,97.72
2017-12-08T08:18:25.143Z,98.16
2017-12-08T08:20:53.981Z,98.16
2017-12-08T08:23:21.452Z,97.28
2017-12-08T08:25:49.671Z,97.64
2017-12-08T08:28:17.156Z,96.71
2017-12-08T08:30:44.615Z,96.06
2017-12-08T08:33:12.730Z,95.58
2017-12-08T08:35:40.201Z,95.23
2017-12-08T08:38:07.686Z,94.67
2017-12-08T08:40:35.189Z,93.37
2017-12-08T08:43:03.989Z,91.84
2017-12-08T08:45:31.807Z,91.06
2017-12-08T08:48:01.504Z,89.18
2017-12-08T08:50:30.655Z,87.19
2017-12-08T08:52:58.422Z,84.88
2017-12-08T08:55:25.884Z,82.08
2017-12-08T08:57:53.367Z,83.79
2017-12-08T09:00:21.976Z,84.69
2017-12-08T09:02:49.456Z,83.06
2017-12-08T09:05:16.965Z,83.29
2017-12-08T09:07:45.153Z,84.07
2017-12-08T09:10:12.620Z,84.41
2017-12-08T09:12:40.115Z,84.26
2017-12-08T09:15:07.601Z,83.90
2017-12-08T09:17:35.183Z,78.78
2017-12-08T09:20:02.682Z,78.08
2017-12-08T09:22:30.156Z,78.69
2017-12-08T09:24:57.654Z,77.18
2017-12-08T09:27:25.118Z,74.50
2017-12-08T09:29:52.585Z,70.83
2017-12-08T09:32:20.079Z,72.82
2017-12-08T09:34:47.573Z,73.74
2017-12-08T09:37:15.054Z,73.18
2017-12-08T09:39:42.522Z,75.19
2017-12-08T09:42:10.007Z,74.42
2017-12-08T09:44:37.461Z,75.25
2017-12-08T09:47:05.793Z,73.07
2017-12-08T09:49:33.731Z,74.38
2017-12-08T09:52:01.221Z,71.39
2017-12-08T09:54:28.709Z,75.43
2017-12-08T09:56:56.386Z,73.50
2017-12-08T09:59:23.872Z,75.50
2017-12-08T10:01:51.333Z,75.14
2017-12-08T10:04:18.812Z,75.02
2017-12-08T10:06:46.296Z,76.99
2017-12-08T10:09:13.798Z,75.07
2017-12-08T10:11:41.293Z,75.01
2017-12-08T10:14:08.777Z,75.54
2017-12-08T10:16:36.250Z,75.40
2017-12-08T10:19:04.857Z,76.59
2017-12-08T10:21:33.295Z,74.59
2017-12-08T10:24:00.827Z,76.65
2017-12-08T10:26:28.301Z,74.23
2017-12-08T10:28:55.799Z,75.34
2017-12-08T10:31:24.087Z,74.37
2017-12-08T10:33:51.595Z,77.06
2017-12-08T10:36:19.105Z,75.06
2017-12-08T10:38:46.586Z,76.22
2017-12-08T10:41:14.072Z,75.61
2017-12-08T10:43:41.538Z,75.82
2017-12-08T10:46:09.041Z,76.78
2017-12-08T10:48:36.584Z,75.79
2017-12-08T10:51:04.037Z,77.15
2017-12-08T10:53:31.529Z,75.25
2017-12-08T10:55:59.016Z,75.09
2017-12-08T10:58:27.373Z,74.56
2017-12-08T11:00:54.854Z,74.61
2017-12-08T11:03:22.325Z,75.31
2017-12-08T11:05:49.782Z,76.32
2017-12-08T11:08:17.992Z,75.26
2017-12-08T11:10:45.509Z,75.56
2017-12-08T11:13:12.971Z,75.25
2017-12-08T11:15:40.468Z,75.04
2017-12-08T11:18:07.969Z,75.31
2017-12-08T11:20:35.447Z,75.57
2017-12-08T11:23:02.934Z,76.22
2017-12-08T11:25:30.422Z,75.12
2017-12-08T11:27:57.924Z,72.94
2017-12-08T11:30:25.438Z,73.61
2017-12-08T11:32:52.922Z,72.93
2017-12-08T11:35:20.427Z,73.72
2017-12-08T11:37:47.883Z,74.24
2017-12-08T11:40:15.361Z,74.87
2017-12-08T11:42:42.844Z,74.67
2017-12-08T11:45:10.315Z,75.35
2017-12-08T11:47:37.813Z,74.54
2017-12-08T11:50:05.318Z,74.67
2017-12-08T11:52:32.826Z,73.98
2017-12-08T11:55:00.398Z,73.61
2017-12-08T11:57:27.872Z,74.54
2017-12-08T11:59:55.362Z,73.38
2017-12-08T12:02:22.896Z,73.68
2017-12-08T12:04:50.422Z,79.20
2017-12-08T12:07:17.947Z,80.39
2017-12-08T12:09:45.428Z,80.83
2017-12-08T12:12:12.917Z,81.70
2017-12-08T12:14:40.421Z,82.81
2017-12-08T12:17:07.902Z,84.61
2017-12-08T12:19:35.406Z,85.30
2017-12-08T12:22:02.880Z,87.55
2017-12-08T12:24:30.394Z,89.74
2017-12-08T12:26:57.904Z,91.00
2017-12-08T12:29:25.375Z,91.71
2017-12-08T12:31:52.880Z,91.93
2017-12-08T12:34:20.355Z,91.95
2017-12-08T12:36:47.823Z,92.33
2017-12-08T12:39:15.309Z,92.92
2017-12-08T12:41:42.804Z,92.81
2017-12-08T12:44:10.289Z,92.95
2017-12-08T12:46:37.789Z,92.47
2017-12-08T12:49:06.130Z,93.28
2017-12-08T12:51:33.756Z,92.49
2017-12-08T12:54:01.247Z,91.72
2017-12-08T12:56:28.730Z,93.48
2017-12-08T12:58:56.230Z,93.95
2017-12-08T13:01:24.853Z,94.44
2017-12-08T13:03:52.314Z,95.24
2017-12-08T13:06:19.813Z,95.96
2017-12-08T13:08:47.300Z,96.25
2017-12-08T13:11:14.777Z,96.53
2017-12-08T13:13:42.242Z,97.81
2017-12-08T13:16:10.245Z,97.12
2017-12-08T13:18:37.772Z,97.45
2017-12-08T13:21:05.271Z,97.50
2017-12-08T13:23:32.777Z,97.40
2017-12-08T13:26:00.242Z,96.77
2017-12-08T13:28:27.716Z,96.95
2017-12-08T13:30:55.185Z,97.02
2017-12-08T13:33:22.666Z,97.12
2017-12-08T13:35:50.156Z,95.99
2017-12-08T13:38:17.665Z,96.26
2017-12-08T13:40:45.134Z,96.64
2017-12-08T13:43:12.641Z,96.41
2017-12-08T13:45:40.121Z,96.57
2017-12-08T13:48:07.598Z,96.40
2017-12-08T13:50:35.078Z,95.47
2017-12-08T13:53:02.569Z,95.78
2017-12-08T13:55:41.857Z,97.07
2017-12-08T13:58:09.388Z,95.90
2017-12-08T14:00:36.850Z,95.51
2017-12-08T14:03:04.442Z,95.43
2017-12-08T14:05:31.945Z,95.93
2017-12-08T14:07:59.444Z,95.79
2017-12-08T14:10:27.122Z,95.37
2017-12-08T14:12:56.475Z,95.75
2017-12-08T14:15:24.107Z,95.17
2017-12-08T14:17:52.539Z,94.91
2017-12-08T14:20:20.003Z,95.47
2017-12-08T14:22:47.478Z,95.35
2017-12-08T14:25:14.998Z,94.41
2017-12-08T14:27:42.468Z,94.26
2017-12-08T14:30:09.978Z,94.84
2017-12-08T14:32:37.470Z,95.09
2017-12-08T14:35:04.986Z,95.44
2017-12-08T14:37:32.525Z,95.51
2017-12-08T14:40:01.929Z,93.86
2017-12-08T14:42:29.438Z,94.94
2017-12-08T14:44:56.910Z,94.05
2017-12-08T14:47:24.953Z,94.79
2017-12-08T14:49:52.492Z,96.27
2017-12-08T14:52:20.018Z,95.92
2017-12-08T14:54:47.514Z,95.43
2017-12-08T14:57:14.997Z,96.64
2017-12-08T14:59:42.490Z,96.84
2017-12-08T15:02:09.977Z,96.89
2017-12-08T15:04:37.497Z,97.26
2017-12-08T15:07:04.970Z,97.10
2017-12-08T15:09:32.525Z,97.78
2017-12-08T15:12:00.014Z,98.04
2017-12-08T15:14:27.565Z,97.97
2017-12-08T15:16:55.171Z,98.48
2017-12-08T15:19:22.673Z,99.08
2017-12-08T15:21:50.167Z,99.33
2017-12-08T15:24:17.674Z,99.19
2017-12-08T15:26:45.237Z,99.59
2017-12-08T15:29:12.730Z,99.61
2017-12-08T15:31:40.239Z,100.00
2017-12-08T15:34:07.734Z,100.00
2017-12-08T15:36:35.241Z,100.00
2017-12-08T15:39:02.776Z,100.00
2017-12-08T15:41:30.296Z,100.00
2017-12-08T15:43:57.763Z,100.00
2017-12-08T15:46:25.314Z,100.00
2017-12-08T15:48:52.816Z,100.00
2017-12-08T15:51:20.295Z,100.00
2017-12-08T15:53:47.816Z,100.00
2017-12-08T15:56:15.342Z,100.00
2017-12-08T15:58:42.828Z,100.00
2017-12-08T16:01:10.338Z,100.00
2017-12-08T16:03:37.833Z,100.00
2017-12-08T16:06:05.332Z,100.00
2017-12-08T16:08:32.828Z,100.00
2017-12-08T16:11:00.314Z,100.00
2017-12-08T16:13:27.805Z,100.00
2017-12-08T16:15:55.285Z,100.00
2017-12-08T16:18:22.788Z,100.00
2017-12-08T16:20:50.278Z,100.00
2017-12-08T16:23:17.772Z,100.00
2017-12-08T16:25:45.240Z,100.00
2017-12-08T16:28:12.885Z,100.00
2017-12-08T16:30:40.363Z,100.00
2017-12-08T16:33:07.889Z,100.00
2017-12-08T16:35:35.368Z,100.00
2017-12-08T16:38:02.878Z,100.00
2017-12-08T16:40:30.462Z,100.00
2017-12-08T16:42:57.972Z,100.00
2017-12-08T16:45:25.482Z,100.00
2017-12-08T16:47:52.972Z,100.00
2017-12-08T16:50:20.500Z,100.00
2017-12-08T16:52:48.006Z,100.00
2017-12-08T16:55:15.509Z,100.00
2017-12-08T16:57:43.024Z,100.00
2017-12-08T17:00:10.510Z,100.00
2017-12-08T17:02:38.055Z,100.00
2017-12-08T17:05:05.565Z,100.00
2017-12-08T17:07:33.045Z,100.00
2017-12-08T17:10:00.577Z,100.00
2017-12-08T17:12:28.113Z,100.00
2017-12-08T17:14:55.606Z,100.00
2017-12-08T17:17:23.074Z,100.00
2017-12-08T17:19:50.565Z,99.96
2017-12-08T17:22:18.042Z,100.00
2017-12-08T17:24:45.545Z,100.00
2017-12-08T17:27:13.040Z,100.00
2017-12-08T17:29:40.521Z,100.00
2017-12-08T17:32:07.998Z,100.00
2017-12-08T17:34:35.483Z,100.00
2017-12-08T17:37:03.005Z,99.95
2017-12-08T17:39:30.497Z,100.00
2017-12-08T17:41:58.773Z,100.00
2017-12-08T17:44:26.293Z,99.94
2017-12-08T17:46:53.792Z,100.00
2017-12-08T17:49:21.284Z,100.00
2017-12-08T17:51:48.788Z,100.00
2017-12-08T17:54:16.281Z,100.00
2017-12-08T17:56:43.767Z,99.87
2017-12-08T17:59:12.128Z,99.48
2017-12-08T18:01:39.608Z,99.76
2017-12-08T18:04:07.104Z,99.63
2017-12-08T18:06:34.585Z,99.74
2017-12-08T18:09:02.054Z,99.33
2017-12-08T18:11:29.540Z,99.35
2017-12-08T18:13:57.033Z,98.78
2017-12-08T18:16:24.530Z,98.71
2017-12-08T18:18:52.044Z,98.39
2017-12-08T18:21:19.579Z,98.55
2017-12-08T18:23:47.113Z,98.36
2017-12-08T18:26:14.642Z,97.37
2017-12-08T18:28:42.143Z,97.79
2017-12-08T18:31:09.679Z,98.03
2017-12-08T18:33:37.213Z,97.33
2017-12-08T18:36:04.694Z,97.38
2017-12-08T18:38:32.185Z,96.82
2017-12-08T18:40:59.668Z,96.88
2017-12-08T18:43:27.397Z,96.99
2017-12-08T18:48:21.663Z,96.35
2017-12-08T18:50:49.167Z,96.50
2017-12-08T18:53:17.487Z,96.46
2017-12-08T18:55:44.995Z,96.87
2017-12-08T18:58:12.461Z,96.45
2017-12-08T19:00:39.942Z,95.82
2017-12-08T19:03:07.429Z,94.99
2017-12-08T19:05:34.914Z,95.04
2017-12-08T19:08:02.376Z,95.46
2017-12-08T19:10:29.876Z,95.58
2017-12-08T19:12:57.394Z,94.09
2017-12-08T19:15:24.859Z,94.02
2017-12-08T19:17:52.444Z,94.33
2017-12-08T19:20:19.954Z,93.14
2017-12-08T19:22:47.424Z,93.74
2017-12-08T19:25:14.886Z,94.36
2017-12-08T19:27:42.394Z,94.64
2017-12-08T19:30:09.921Z,95.09
2017-12-08T19:32:37.444Z,94.60
2017-12-08T19:35:05.019Z,95.42
2017-12-08T19:37:32.516Z,94.81
2017-12-08T19:40:00.029Z,95.14
2017-12-08T19:42:27.545Z,95.07
2017-12-08T19:44:55.042Z,95.20
2017-12-08T19:47:22.534Z,95.44
2017-12-08T19:49:50.093Z,94.42
2017-12-08T19:52:17.628Z,94.10
2017-12-08T19:54:45.130Z,95.29
2017-12-08T19:57:12.599Z,94.59
2017-12-08T19:59:40.118Z,92.78
2017-12-08T20:02:07.577Z,93.67
2017-12-08T20:04:35.034Z,93.62
2017-12-08T20:07:02.579Z,93.66
2017-12-08T20:09:30.065Z,93.75
2017-12-08T20:11:57.542Z,93.49
2017-12-08T20:14:25.049Z,93.87
2017-12-08T20:16:52.561Z,93.79
2017-12-08T20:19:20.036Z,94.76
2017-12-08T20:21:47.541Z,93.59
2017-12-08T20:24:15.012Z,94.19
2017-12-08T20:26:43.927Z,93.82
2017-12-08T20:29:11.436Z,93.21
2017-12-08T20:31:38.938Z,93.48
2017-12-08T20:34:06.629Z,94.37
2017-12-08T20:36:34.177Z,94.61
2017-12-08T20:39:01.687Z,93.82
2017-12-08T20:41:29.175Z,94.86
2017-12-08T20:43:56.673Z,95.01
2017-12-08T20:46:24.182Z,94.98
2017-12-08T20:48:52.291Z,93.48
2017-12-08T20:51:19.809Z,94.77
2017-12-08T20:53:47.286Z,93.88
2017-12-08T20:56:14.809Z,94.74
2017-12-08T20:58:42.280Z,94.10
2017-12-08T21:01:09.754Z,94.63
2017-12-08T21:03:37.214Z,94.15
2017-12-08T21:06:04.733Z,94.09
2017-12-08T21:08:32.228Z,94.15
2017-12-08T21:10:59.729Z,93.25
2017-12-08T21:13:27.207Z,93.86
2017-12-08T21:15:54.711Z,93.51
2017-12-08T21:18:22.182Z,93.94
2017-12-08T21:20:49.721Z,92.73
2017-12-08T21:23:17.292Z,93.73
2017-12-08T21:25:44.737Z,92.52
2017-12-08T21:28:12.201Z,93.28
2017-12-08T21:30:39.672Z,92.92
2017-12-08T21:33:07.196Z,93.20
2017-12-08T21:35:34.665Z,93.35
2017-12-08T21:38:02.153Z,93.19
2017-12-08T21:40:29.642Z,94.04
2017-12-08T21:42:57.149Z,93.47
2017-12-08T21:45:24.674Z,92.79
2017-12-08T21:47:52.163Z,93.33
2017-12-08T21:50:19.643Z,93.53
2017-12-08T21:52:47.140Z,92.51
2017-12-08T21:55:14.632Z,92.53
2017-12-08T21:57:42.103Z,91.96
2017-12-08T22:00:09.566Z,93.13
2017-12-08T22:02:37.057Z,92.82
2017-12-08T22:05:04.578Z,93.47
2017-12-08T22:07:32.088Z,93.75
2017-12-08T22:09:59.718Z,92.60
2017-12-08T22:12:27.234Z,93.22
2017-12-08T22:14:54.710Z,92.75
2017-12-08T22:17:22.182Z,92.58
2017-12-08T22:19:49.651Z,92.09
2017-12-08T22:22:17.150Z,91.94
2017-12-08T22:24:44.649Z,90.91
2017-12-08T22:27:12.114Z,91.62
2017-12-08T22:29:39.604Z,91.20
2017-12-08T22:32:07.094Z,91.79
2017-12-08T22:34:34.593Z,91.36
2017-12-08T22:37:02.107Z,91.52
2017-12-08T22:39:29.631Z,90.86
2017-12-08T22:41:57.852Z,90.27
2017-12-08T22:44:25.327Z,89.98
2017-12-08T22:46:52.811Z,90.76
2017-12-08T22:49:20.299Z,90.86
2017-12-08T22:51:47.761Z,91.03
2017-12-08T22:54:15.813Z,91.42
2017-12-08T22:56:43.284Z,92.39
2017-12-08T22:59:10.777Z,94.47
2017-12-08T23:01:38.305Z,96.15
2017-12-08T23:04:05.790Z,97.26
2017-12-08T23:06:33.268Z,97.86
2017-12-08T23:09:00.776Z,98.87
2017-12-08T23:11:28.277Z,99.76
2017-12-08T23:13:55.784Z,99.54
2017-12-08T23:16:23.294Z,100.00
2017-12-08T23:18:50.821Z,100.00
2017-12-08T23:21:18.351Z,100.00
2017-12-08T23:23:45.823Z,100.00
2017-12-08T23:26:14.390Z,99.71
2017-12-08T23:28:41.915Z,99.56
2017-12-08T23:31:09.418Z,99.65
2017-12-08T23:33:36.888Z,99.42
2017-12-08T23:36:04.366Z,98.69
2017-12-08T23:38:31.826Z,98.58
2017-12-08T23:40:59.362Z,97.68
2017-12-08T23:43:26.896Z,98.57
2017-12-08T23:45:54.382Z,98.69
2017-12-08T23:48:21.900Z,98.20
2017-12-08T23:50:49.388Z,97.94
2017-12-08T23:53:16.877Z,98.04
2017-12-08T23:55:44.371Z,98.33
2017-12-08T23:58:11.839Z,98.41
